sensor_id;sensor_type;location;lat;lon;timestamp;P1;durP1;ratioP1;P2;durP2;ratioP2
15246;SDS011;7726;48.820;9.248;2023-03-15T00:00:05;1.70;;;1.60;;
15246;SDS011;7726;48.820;9.248;2023-03-15T00:02:34;2.00;;;1.90;;
15246;SDS011;7726;48.820;9.248;2023-03-15T00:05:01;2.20;;;2.00;;
15246;SDS011;7726;48.820;9.248;2023-03-15T00:07:28;2.40;;;2.20;;
15246;SDS011;7726;48.820;9.248;2023-03-15T00:09:55;2.90;;;2.10;;
15246;SDS011;7726;48.820;9.248;2023-03-15T00:12:24;2.93;;;2.70;;
15246;SDS011;7726;48.820;9.248;2023-03-15T00:14:51;2.87;;;2.60;;
15246;SDS011;7726;48.820;9.248;2023-03-15T00:17:18;4.43;;;2.60;;
15246;SDS011;7726;48.820;9.248;2023-03-15T00:19:46;4.60;;;2.77;;
15246;SDS011;7726;48.820;9.248;2023-03-15T00:22:13;5.17;;;2.57;;
15246;SDS011;7726;48.820;9.248;2023-03-15T00:24:40;3.37;;;2.80;;
15246;SDS011;7726;48.820;9.248;2023-03-15T00:27:08;3.30;;;2.90;;
15246;SDS011;7726;48.820;9.248;2023-03-15T00:29:36;3.83;;;2.97;;
15246;SDS011;7726;48.820;9.248;2023-03-15T00:32:03;4.10;;;3.33;;
15246;SDS011;7726;48.820;9.248;2023-03-15T00:34:31;5.07;;;3.03;;
15246;SDS011;7726;48.820;9.248;2023-03-15T00:36:58;5.07;;;2.90;;
15246;SDS011;7726;48.820;9.248;2023-03-15T00:39:25;3.57;;;3.27;;
15246;SDS011;7726;48.820;9.248;2023-03-15T00:41:53;3.83;;;3.10;;
15246;SDS011;7726;48.820;9.248;2023-03-15T00:44:21;4.93;;;3.33;;
15246;SDS011;7726;48.820;9.248;2023-03-15T00:46:50;3.67;;;3.30;;
15246;SDS011;7726;48.820;9.248;2023-03-15T00:49:17;3.43;;;3.13;;
15246;SDS011;7726;48.820;9.248;2023-03-15T00:51:44;4.43;;;3.40;;
15246;SDS011;7726;48.820;9.248;2023-03-15T00:54:11;4.33;;;3.10;;
15246;SDS011;7726;48.820;9.248;2023-03-15T00:56:38;4.93;;;3.20;;
15246;SDS011;7726;48.820;9.248;2023-03-15T00:59:06;3.67;;;3.03;;
15246;SDS011;7726;48.820;9.248;2023-03-15T01:01:33;4.50;;;3.10;;
15246;SDS011;7726;48.820;9.248;2023-03-15T01:04:01;6.23;;;3.40;;
15246;SDS011;7726;48.820;9.248;2023-03-15T01:06:28;5.40;;;3.00;;
15246;SDS011;7726;48.820;9.248;2023-03-15T01:08:55;5.20;;;3.30;;
15246;SDS011;7726;48.820;9.248;2023-03-15T01:11:23;4.17;;;3.40;;
15246;SDS011;7726;48.820;9.248;2023-03-15T01:13:51;5.27;;;3.43;;
15246;SDS011;7726;48.820;9.248;2023-03-15T01:16:18;4.27;;;3.03;;
15246;SDS011;7726;48.820;9.248;2023-03-15T01:18:46;6.13;;;3.07;;
15246;SDS011;7726;48.820;9.248;2023-03-15T01:21:17;6.23;;;3.33;;
15246;SDS011;7726;48.820;9.248;2023-03-15T01:23:44;7.00;;;2.90;;
15246;SDS011;7726;48.820;9.248;2023-03-15T01:26:15;5.67;;;2.77;;
15246;SDS011;7726;48.820;9.248;2023-03-15T01:28:42;4.27;;;2.73;;
15246;SDS011;7726;48.820;9.248;2023-03-15T01:31:11;6.00;;;3.00;;
15246;SDS011;7726;48.820;9.248;2023-03-15T01:33:40;7.07;;;2.83;;
15246;SDS011;7726;48.820;9.248;2023-03-15T01:36:09;5.97;;;3.27;;
15246;SDS011;7726;48.820;9.248;2023-03-15T01:38:38;3.43;;;2.97;;
15246;SDS011;7726;48.820;9.248;2023-03-15T01:41:05;3.87;;;3.23;;
15246;SDS011;7726;48.820;9.248;2023-03-15T01:43:32;5.27;;;2.57;;
15246;SDS011;7726;48.820;9.248;2023-03-15T01:46:04;5.73;;;2.70;;
15246;SDS011;7726;48.820;9.248;2023-03-15T01:48:33;2.50;;;2.30;;
15246;SDS011;7726;48.820;9.248;2023-03-15T01:51:03;4.03;;;2.57;;
15246;SDS011;7726;48.820;9.248;2023-03-15T01:53:32;3.00;;;2.50;;
15246;SDS011;7726;48.820;9.248;2023-03-15T01:56:02;5.60;;;2.23;;
15246;SDS011;7726;48.820;9.248;2023-03-15T01:58:30;7.20;;;2.70;;
15246;SDS011;7726;48.820;9.248;2023-03-15T02:00:57;7.10;;;2.47;;
15246;SDS011;7726;48.820;9.248;2023-03-15T02:03:26;5.43;;;2.30;;
15246;SDS011;7726;48.820;9.248;2023-03-15T02:05:56;4.70;;;2.47;;
15246;SDS011;7726;48.820;9.248;2023-03-15T02:08:25;4.43;;;2.17;;
15246;SDS011;7726;48.820;9.248;2023-03-15T02:10:55;4.90;;;2.40;;
15246;SDS011;7726;48.820;9.248;2023-03-15T02:13:25;5.30;;;2.30;;
15246;SDS011;7726;48.820;9.248;2023-03-15T02:15:52;4.63;;;2.43;;
15246;SDS011;7726;48.820;9.248;2023-03-15T02:18:20;3.40;;;1.90;;
15246;SDS011;7726;48.820;9.248;2023-03-15T02:20:49;3.30;;;1.87;;
15246;SDS011;7726;48.820;9.248;2023-03-15T02:23:17;4.07;;;1.80;;
15246;SDS011;7726;48.820;9.248;2023-03-15T02:25:47;2.67;;;1.73;;
15246;SDS011;7726;48.820;9.248;2023-03-15T02:28:19;6.00;;;2.10;;
15246;SDS011;7726;48.820;9.248;2023-03-15T02:30:46;3.33;;;1.53;;
15246;SDS011;7726;48.820;9.248;2023-03-15T02:33:14;3.67;;;1.90;;
15246;SDS011;7726;48.820;9.248;2023-03-15T02:35:43;6.27;;;1.80;;
15246;SDS011;7726;48.820;9.248;2023-03-15T02:38:10;2.00;;;1.80;;
15246;SDS011;7726;48.820;9.248;2023-03-15T02:40:37;4.43;;;1.63;;
15246;SDS011;7726;48.820;9.248;2023-03-15T02:43:05;2.97;;;1.57;;
15246;SDS011;7726;48.820;9.248;2023-03-15T02:45:34;1.33;;;1.17;;
15246;SDS011;7726;48.820;9.248;2023-03-15T02:48:02;4.23;;;2.13;;
15246;SDS011;7726;48.820;9.248;2023-03-15T02:50:31;2.90;;;1.90;;
15246;SDS011;7726;48.820;9.248;2023-03-15T02:52:58;5.37;;;1.60;;
15246;SDS011;7726;48.820;9.248;2023-03-15T02:55:27;3.07;;;1.43;;
15246;SDS011;7726;48.820;9.248;2023-03-15T02:57:56;2.07;;;1.53;;
15246;SDS011;7726;48.820;9.248;2023-03-15T03:00:23;3.57;;;1.40;;
15246;SDS011;7726;48.820;9.248;2023-03-15T03:02:52;1.77;;;1.53;;
15246;SDS011;7726;48.820;9.248;2023-03-15T03:05:19;3.83;;;1.53;;
15246;SDS011;7726;48.820;9.248;2023-03-15T03:07:46;3.70;;;1.40;;
15246;SDS011;7726;48.820;9.248;2023-03-15T03:10:15;3.83;;;1.73;;
15246;SDS011;7726;48.820;9.248;2023-03-15T03:12:42;4.33;;;1.70;;
15246;SDS011;7726;48.820;9.248;2023-03-15T03:15:10;5.07;;;1.67;;
15246;SDS011;7726;48.820;9.248;2023-03-15T03:17:37;5.63;;;1.93;;
15246;SDS011;7726;48.820;9.248;2023-03-15T03:20:07;3.57;;;1.70;;
15246;SDS011;7726;48.820;9.248;2023-03-15T03:22:37;5.63;;;1.97;;
15246;SDS011;7726;48.820;9.248;2023-03-15T03:25:04;4.63;;;1.43;;
15246;SDS011;7726;48.820;9.248;2023-03-15T03:27:32;2.40;;;1.40;;
15246;SDS011;7726;48.820;9.248;2023-03-15T03:30:01;2.10;;;1.20;;
15246;SDS011;7726;48.820;9.248;2023-03-15T03:32:28;5.70;;;1.43;;
15246;SDS011;7726;48.820;9.248;2023-03-15T03:34:55;4.00;;;1.30;;
15246;SDS011;7726;48.820;9.248;2023-03-15T03:37:24;4.13;;;1.23;;
15246;SDS011;7726;48.820;9.248;2023-03-15T03:39:51;3.60;;;1.40;;
15246;SDS011;7726;48.820;9.248;2023-03-15T03:42:18;5.83;;;1.43;;
15246;SDS011;7726;48.820;9.248;2023-03-15T03:44:45;1.77;;;1.20;;
15246;SDS011;7726;48.820;9.248;2023-03-15T03:47:14;3.43;;;1.43;;
15246;SDS011;7726;48.820;9.248;2023-03-15T03:49:41;5.00;;;1.87;;
15246;SDS011;7726;48.820;9.248;2023-03-15T03:52:08;2.90;;;1.37;;
15246;SDS011;7726;48.820;9.248;2023-03-15T03:54:37;2.50;;;1.20;;
15246;SDS011;7726;48.820;9.248;2023-03-15T03:57:04;2.33;;;1.30;;
15246;SDS011;7726;48.820;9.248;2023-03-15T03:59:31;2.90;;;1.30;;
15246;SDS011;7726;48.820;9.248;2023-03-15T04:01:58;3.03;;;1.17;;
15246;SDS011;7726;48.820;9.248;2023-03-15T04:04:25;4.73;;;1.30;;
15246;SDS011;7726;48.820;9.248;2023-03-15T04:06:52;5.03;;;1.60;;
15246;SDS011;7726;48.820;9.248;2023-03-15T04:09:19;6.17;;;1.50;;
15246;SDS011;7726;48.820;9.248;2023-03-15T04:11:50;5.50;;;1.77;;
15246;SDS011;7726;48.820;9.248;2023-03-15T04:14:17;1.80;;;1.10;;
15246;SDS011;7726;48.820;9.248;2023-03-15T04:16:44;1.93;;;1.20;;
15246;SDS011;7726;48.820;9.248;2023-03-15T04:19:11;2.10;;;1.33;;
15246;SDS011;7726;48.820;9.248;2023-03-15T04:21:38;7.00;;;1.70;;
15246;SDS011;7726;48.820;9.248;2023-03-15T04:24:11;4.23;;;1.60;;
15246;SDS011;7726;48.820;9.248;2023-03-15T04:26:39;3.30;;;1.50;;
15246;SDS011;7726;48.820;9.248;2023-03-15T04:29:08;4.33;;;1.57;;
15246;SDS011;7726;48.820;9.248;2023-03-15T04:31:38;5.23;;;1.70;;
15246;SDS011;7726;48.820;9.248;2023-03-15T04:34:07;4.17;;;2.13;;
15246;SDS011;7726;48.820;9.248;2023-03-15T04:36:35;5.13;;;1.50;;
15246;SDS011;7726;48.820;9.248;2023-03-15T04:39:02;3.30;;;1.50;;
15246;SDS011;7726;48.820;9.248;2023-03-15T04:41:31;4.47;;;1.70;;
15246;SDS011;7726;48.820;9.248;2023-03-15T04:43:59;5.87;;;1.90;;
15246;SDS011;7726;48.820;9.248;2023-03-15T04:46:28;4.57;;;2.13;;
15246;SDS011;7726;48.820;9.248;2023-03-15T04:48:56;6.47;;;1.73;;
15246;SDS011;7726;48.820;9.248;2023-03-15T04:51:23;3.77;;;1.70;;
15246;SDS011;7726;48.820;9.248;2023-03-15T04:53:50;4.63;;;1.67;;
15246;SDS011;7726;48.820;9.248;2023-03-15T04:56:17;6.53;;;1.97;;
15246;SDS011;7726;48.820;9.248;2023-03-15T04:58:44;7.40;;;2.03;;
15246;SDS011;7726;48.820;9.248;2023-03-15T05:01:11;5.43;;;2.10;;
15246;SDS011;7726;48.820;9.248;2023-03-15T05:03:40;4.37;;;2.03;;
15246;SDS011;7726;48.820;9.248;2023-03-15T05:06:07;4.77;;;1.93;;
15246;SDS011;7726;48.820;9.248;2023-03-15T05:08:34;5.07;;;1.90;;
15246;SDS011;7726;48.820;9.248;2023-03-15T05:11:01;4.97;;;2.10;;
15246;SDS011;7726;48.820;9.248;2023-03-15T05:13:29;4.47;;;2.20;;
15246;SDS011;7726;48.820;9.248;2023-03-15T05:15:56;4.43;;;2.00;;
15246;SDS011;7726;48.820;9.248;2023-03-15T05:18:23;2.77;;;2.20;;
15246;SDS011;7726;48.820;9.248;2023-03-15T05:20:51;4.10;;;2.10;;
15246;SDS011;7726;48.820;9.248;2023-03-15T05:23:19;1.90;;;1.70;;
15246;SDS011;7726;48.820;9.248;2023-03-15T05:25:48;5.60;;;1.97;;
15246;SDS011;7726;48.820;9.248;2023-03-15T05:28:18;4.73;;;2.03;;
15246;SDS011;7726;48.820;9.248;2023-03-15T05:30:45;4.27;;;2.10;;
15246;SDS011;7726;48.820;9.248;2023-03-15T05:33:12;6.73;;;2.63;;
15246;SDS011;7726;48.820;9.248;2023-03-15T05:35:39;6.73;;;2.23;;
15246;SDS011;7726;48.820;9.248;2023-03-15T05:38:07;3.53;;;2.17;;
15246;SDS011;7726;48.820;9.248;2023-03-15T05:40:38;4.23;;;1.87;;
15246;SDS011;7726;48.820;9.248;2023-03-15T05:43:05;3.83;;;2.00;;
15246;SDS011;7726;48.820;9.248;2023-03-15T05:45:32;3.97;;;2.30;;
15246;SDS011;7726;48.820;9.248;2023-03-15T05:47:59;6.47;;;2.40;;
15246;SDS011;7726;48.820;9.248;2023-03-15T05:50:26;3.83;;;2.40;;
15246;SDS011;7726;48.820;9.248;2023-03-15T05:52:54;4.60;;;2.40;;
15246;SDS011;7726;48.820;9.248;2023-03-15T05:55:22;7.77;;;2.73;;
15246;SDS011;7726;48.820;9.248;2023-03-15T05:57:50;4.43;;;2.23;;
15246;SDS011;7726;48.820;9.248;2023-03-15T06:00:17;5.20;;;2.30;;
15246;SDS011;7726;48.820;9.248;2023-03-15T06:02:45;5.27;;;2.53;;
15246;SDS011;7726;48.820;9.248;2023-03-15T06:05:12;7.97;;;2.23;;
15246;SDS011;7726;48.820;9.248;2023-03-15T06:07:39;6.63;;;2.30;;
15246;SDS011;7726;48.820;9.248;2023-03-15T06:10:07;8.77;;;2.40;;
15246;SDS011;7726;48.820;9.248;2023-03-15T06:12:36;5.13;;;2.40;;
15246;SDS011;7726;48.820;9.248;2023-03-15T06:15:04;6.97;;;2.33;;
15246;SDS011;7726;48.820;9.248;2023-03-15T06:17:31;10.20;;;2.63;;
15246;SDS011;7726;48.820;9.248;2023-03-15T06:19:58;8.43;;;2.63;;
15246;SDS011;7726;48.820;9.248;2023-03-15T06:22:25;6.53;;;2.77;;
15246;SDS011;7726;48.820;9.248;2023-03-15T06:24:52;4.87;;;2.13;;
15246;SDS011;7726;48.820;9.248;2023-03-15T06:27:19;3.97;;;2.33;;
15246;SDS011;7726;48.820;9.248;2023-03-15T06:29:48;3.53;;;2.47;;
15246;SDS011;7726;48.820;9.248;2023-03-15T06:32:15;6.57;;;2.70;;
15246;SDS011;7726;48.820;9.248;2023-03-15T06:34:42;7.03;;;2.70;;
15246;SDS011;7726;48.820;9.248;2023-03-15T06:37:09;6.63;;;2.70;;
15246;SDS011;7726;48.820;9.248;2023-03-15T06:39:37;5.73;;;2.50;;
15246;SDS011;7726;48.820;9.248;2023-03-15T06:42:05;7.20;;;2.47;;
15246;SDS011;7726;48.820;9.248;2023-03-15T06:44:33;5.10;;;2.27;;
15246;SDS011;7726;48.820;9.248;2023-03-15T06:47:02;5.17;;;3.03;;
15246;SDS011;7726;48.820;9.248;2023-03-15T06:49:29;6.17;;;2.30;;
15246;SDS011;7726;48.820;9.248;2023-03-15T06:51:56;7.60;;;2.20;;
15246;SDS011;7726;48.820;9.248;2023-03-15T06:54:23;6.83;;;2.60;;
15246;SDS011;7726;48.820;9.248;2023-03-15T06:56:50;4.10;;;2.10;;
15246;SDS011;7726;48.820;9.248;2023-03-15T06:59:18;3.63;;;2.20;;
15246;SDS011;7726;48.820;9.248;2023-03-15T07:01:45;6.77;;;2.10;;
15246;SDS011;7726;48.820;9.248;2023-03-15T07:04:13;8.57;;;2.97;;
15246;SDS011;7726;48.820;9.248;2023-03-15T07:06:40;8.83;;;2.50;;
15246;SDS011;7726;48.820;9.248;2023-03-15T07:09:07;9.33;;;2.60;;
15246;SDS011;7726;48.820;9.248;2023-03-15T07:11:34;7.73;;;2.50;;
15246;SDS011;7726;48.820;9.248;2023-03-15T07:14:01;4.00;;;2.03;;
15246;SDS011;7726;48.820;9.248;2023-03-15T07:16:28;6.33;;;2.10;;
15246;SDS011;7726;48.820;9.248;2023-03-15T07:18:56;7.77;;;2.37;;
15246;SDS011;7726;48.820;9.248;2023-03-15T07:21:25;5.33;;;2.03;;
15246;SDS011;7726;48.820;9.248;2023-03-15T07:23:52;4.50;;;1.80;;
15246;SDS011;7726;48.820;9.248;2023-03-15T07:26:20;7.20;;;2.60;;
15246;SDS011;7726;48.820;9.248;2023-03-15T07:28:47;5.03;;;2.43;;
15246;SDS011;7726;48.820;9.248;2023-03-15T07:31:14;4.97;;;2.20;;
15246;SDS011;7726;48.820;9.248;2023-03-15T07:33:41;5.73;;;1.97;;
15246;SDS011;7726;48.820;9.248;2023-03-15T07:36:08;6.43;;;2.27;;
15246;SDS011;7726;48.820;9.248;2023-03-15T07:38:37;5.00;;;2.00;;
15246;SDS011;7726;48.820;9.248;2023-03-15T07:41:05;5.57;;;1.90;;
15246;SDS011;7726;48.820;9.248;2023-03-15T07:43:33;6.30;;;2.13;;
15246;SDS011;7726;48.820;9.248;2023-03-15T07:46:00;5.97;;;1.97;;
15246;SDS011;7726;48.820;9.248;2023-03-15T07:48:28;5.83;;;1.83;;
15246;SDS011;7726;48.820;9.248;2023-03-15T07:50:55;6.10;;;1.70;;
15246;SDS011;7726;48.820;9.248;2023-03-15T07:53:22;4.80;;;1.73;;
15246;SDS011;7726;48.820;9.248;2023-03-15T07:55:50;6.37;;;1.80;;
15246;SDS011;7726;48.820;9.248;2023-03-15T07:58:18;5.33;;;1.77;;
15246;SDS011;7726;48.820;9.248;2023-03-15T08:00:45;3.47;;;1.53;;
15246;SDS011;7726;48.820;9.248;2023-03-15T08:03:12;4.90;;;1.70;;
15246;SDS011;7726;48.820;9.248;2023-03-15T08:05:39;4.90;;;1.70;;
15246;SDS011;7726;48.820;9.248;2023-03-15T08:08:06;2.93;;;1.47;;
15246;SDS011;7726;48.820;9.248;2023-03-15T08:10:33;9.30;;;2.63;;
15246;SDS011;7726;48.820;9.248;2023-03-15T08:13:02;4.20;;;2.07;;
15246;SDS011;7726;48.820;9.248;2023-03-15T08:15:29;6.20;;;1.70;;
15246;SDS011;7726;48.820;9.248;2023-03-15T08:17:56;4.30;;;1.33;;
15246;SDS011;7726;48.820;9.248;2023-03-15T08:20:24;5.83;;;1.40;;
15246;SDS011;7726;48.820;9.248;2023-03-15T08:22:51;7.13;;;1.47;;
15246;SDS011;7726;48.820;9.248;2023-03-15T08:25:19;4.57;;;1.70;;
15246;SDS011;7726;48.820;9.248;2023-03-15T08:27:46;5.60;;;1.70;;
15246;SDS011;7726;48.820;9.248;2023-03-15T08:30:15;2.70;;;1.40;;
15246;SDS011;7726;48.820;9.248;2023-03-15T08:32:43;3.43;;;1.57;;
15246;SDS011;7726;48.820;9.248;2023-03-15T08:35:11;5.27;;;1.80;;
15246;SDS011;7726;48.820;9.248;2023-03-15T08:37:38;4.77;;;2.00;;
15246;SDS011;7726;48.820;9.248;2023-03-15T08:40:06;6.20;;;1.73;;
15246;SDS011;7726;48.820;9.248;2023-03-15T08:42:35;4.00;;;1.60;;
15246;SDS011;7726;48.820;9.248;2023-03-15T08:45:02;2.93;;;1.57;;
15246;SDS011;7726;48.820;9.248;2023-03-15T08:47:32;5.03;;;1.67;;
15246;SDS011;7726;48.820;9.248;2023-03-15T08:50:00;3.27;;;1.77;;
15246;SDS011;7726;48.820;9.248;2023-03-15T08:52:30;4.47;;;1.90;;
15246;SDS011;7726;48.820;9.248;2023-03-15T08:54:57;3.97;;;1.40;;
15246;SDS011;7726;48.820;9.248;2023-03-15T08:57:24;4.07;;;1.57;;
15246;SDS011;7726;48.820;9.248;2023-03-15T08:59:53;4.67;;;1.73;;
15246;SDS011;7726;48.820;9.248;2023-03-15T09:02:20;3.80;;;1.60;;
15246;SDS011;7726;48.820;9.248;2023-03-15T09:04:48;4.93;;;1.60;;
15246;SDS011;7726;48.820;9.248;2023-03-15T09:07:16;2.37;;;1.30;;
15246;SDS011;7726;48.820;9.248;2023-03-15T09:09:43;3.47;;;1.37;;
15246;SDS011;7726;48.820;9.248;2023-03-15T09:12:12;3.67;;;1.30;;
15246;SDS011;7726;48.820;9.248;2023-03-15T09:14:39;4.10;;;1.73;;
15246;SDS011;7726;48.820;9.248;2023-03-15T09:17:06;3.57;;;1.43;;
15246;SDS011;7726;48.820;9.248;2023-03-15T09:19:34;3.10;;;1.40;;
15246;SDS011;7726;48.820;9.248;2023-03-15T09:22:02;4.00;;;1.43;;
15246;SDS011;7726;48.820;9.248;2023-03-15T09:24:29;4.40;;;1.50;;
15246;SDS011;7726;48.820;9.248;2023-03-15T09:26:57;3.50;;;1.67;;
15246;SDS011;7726;48.820;9.248;2023-03-15T09:29:24;2.13;;;1.33;;
15246;SDS011;7726;48.820;9.248;2023-03-15T09:31:51;4.07;;;1.60;;
15246;SDS011;7726;48.820;9.248;2023-03-15T09:34:18;2.80;;;1.50;;
15246;SDS011;7726;48.820;9.248;2023-03-15T09:36:45;3.03;;;1.40;;
15246;SDS011;7726;48.820;9.248;2023-03-15T09:39:18;3.50;;;1.50;;
15246;SDS011;7726;48.820;9.248;2023-03-15T09:41:46;4.97;;;1.60;;
15246;SDS011;7726;48.820;9.248;2023-03-15T09:44:15;4.50;;;1.80;;
15246;SDS011;7726;48.820;9.248;2023-03-15T09:46:45;3.57;;;1.13;;
15246;SDS011;7726;48.820;9.248;2023-03-15T09:49:16;2.70;;;1.40;;
15246;SDS011;7726;48.820;9.248;2023-03-15T09:51:47;4.97;;;1.73;;
15246;SDS011;7726;48.820;9.248;2023-03-15T09:54:15;4.40;;;1.83;;
15246;SDS011;7726;48.820;9.248;2023-03-15T09:56:47;1.57;;;1.30;;
15246;SDS011;7726;48.820;9.248;2023-03-15T09:59:15;3.53;;;1.30;;
15246;SDS011;7726;48.820;9.248;2023-03-15T10:01:46;1.90;;;1.35;;
15246;SDS011;7726;48.820;9.248;2023-03-15T10:04:15;4.67;;;1.50;;
15246;SDS011;7726;48.820;9.248;2023-03-15T10:06:46;4.10;;;1.63;;
15246;SDS011;7726;48.820;9.248;2023-03-15T10:09:14;3.03;;;1.40;;
15246;SDS011;7726;48.820;9.248;2023-03-15T10:11:46;2.90;;;1.30;;
15246;SDS011;7726;48.820;9.248;2023-03-15T10:14:17;1.83;;;1.10;;
15246;SDS011;7726;48.820;9.248;2023-03-15T10:16:47;3.10;;;1.10;;
15246;SDS011;7726;48.820;9.248;2023-03-15T10:19:17;4.73;;;1.10;;
15246;SDS011;7726;48.820;9.248;2023-03-15T10:21:51;2.47;;;1.07;;
15246;SDS011;7726;48.820;9.248;2023-03-15T10:24:21;3.07;;;1.23;;
15246;SDS011;7726;48.820;9.248;2023-03-15T10:26:52;5.23;;;0.90;;
15246;SDS011;7726;48.820;9.248;2023-03-15T10:29:20;3.50;;;1.10;;
15246;SDS011;7726;48.820;9.248;2023-03-15T10:31:48;2.23;;;1.13;;
15246;SDS011;7726;48.820;9.248;2023-03-15T10:34:16;2.97;;;0.90;;
15246;SDS011;7726;48.820;9.248;2023-03-15T10:36:45;2.23;;;1.30;;
15246;SDS011;7726;48.820;9.248;2023-03-15T10:39:13;2.47;;;1.50;;
15246;SDS011;7726;48.820;9.248;2023-03-15T10:41:41;3.57;;;1.27;;
15246;SDS011;7726;48.820;9.248;2023-03-15T10:44:12;2.10;;;1.53;;
15246;SDS011;7726;48.820;9.248;2023-03-15T10:46:39;5.70;;;1.20;;
15246;SDS011;7726;48.820;9.248;2023-03-15T10:49:10;1.00;;;0.83;;
15246;SDS011;7726;48.820;9.248;2023-03-15T10:51:38;2.93;;;1.20;;
15246;SDS011;7726;48.820;9.248;2023-03-15T10:54:10;5.53;;;1.33;;
15246;SDS011;7726;48.820;9.248;2023-03-15T10:56:41;1.63;;;1.20;;
15246;SDS011;7726;48.820;9.248;2023-03-15T10:59:14;3.37;;;1.27;;
15246;SDS011;7726;48.820;9.248;2023-03-15T11:01:44;3.80;;;1.27;;
15246;SDS011;7726;48.820;9.248;2023-03-15T11:04:13;2.80;;;1.40;;
15246;SDS011;7726;48.820;9.248;2023-03-15T11:06:42;4.53;;;1.30;;
15246;SDS011;7726;48.820;9.248;2023-03-15T11:09:11;1.88;;;1.00;;
15246;SDS011;7726;48.820;9.248;2023-03-15T11:11:49;2.78;;;1.10;;
15246;SDS011;7726;48.820;9.248;2023-03-15T11:14:18;2.08;;;1.15;;
15246;SDS011;7726;48.820;9.248;2023-03-15T11:16:46;4.88;;;1.30;;
15246;SDS011;7726;48.820;9.248;2023-03-15T11:19:14;3.07;;;1.30;;
15246;SDS011;7726;48.820;9.248;2023-03-15T11:21:41;1.07;;;0.80;;
15246;SDS011;7726;48.820;9.248;2023-03-15T11:24:14;2.10;;;1.00;;
15246;SDS011;7726;48.820;9.248;2023-03-15T11:26:45;2.40;;;1.20;;
15246;SDS011;7726;48.820;9.248;2023-03-15T11:29:19;2.10;;;1.23;;
15246;SDS011;7726;48.820;9.248;2023-03-15T11:31:48;2.23;;;1.33;;
15246;SDS011;7726;48.820;9.248;2023-03-15T11:34:18;1.83;;;0.97;;
15246;SDS011;7726;48.820;9.248;2023-03-15T11:36:47;1.87;;;1.50;;
15246;SDS011;7726;48.820;9.248;2023-03-15T11:39:26;2.73;;;1.03;;
15246;SDS011;7726;48.820;9.248;2023-03-15T11:41:55;2.90;;;1.17;;
15246;SDS011;7726;48.820;9.248;2023-03-15T11:44:26;4.13;;;1.20;;
15246;SDS011;7726;48.820;9.248;2023-03-15T11:46:54;1.93;;;1.10;;
15246;SDS011;7726;48.820;9.248;2023-03-15T11:49:28;2.50;;;1.00;;
15246;SDS011;7726;48.820;9.248;2023-03-15T11:51:56;1.47;;;0.87;;
15246;SDS011;7726;48.820;9.248;2023-03-15T11:54:25;1.57;;;0.70;;
15246;SDS011;7726;48.820;9.248;2023-03-15T11:56:54;4.73;;;1.10;;
15246;SDS011;7726;48.820;9.248;2023-03-15T11:59:26;1.70;;;1.00;;
15246;SDS011;7726;48.820;9.248;2023-03-15T12:01:55;2.00;;;0.90;;
15246;SDS011;7726;48.820;9.248;2023-03-15T12:04:27;2.50;;;1.03;;
15246;SDS011;7726;48.820;9.248;2023-03-15T12:06:55;4.10;;;0.80;;
15246;SDS011;7726;48.820;9.248;2023-03-15T12:09:39;2.20;;;1.00;;
15246;SDS011;7726;48.820;9.248;2023-03-15T12:14:50;2.50;;;0.93;;
15246;SDS011;7726;48.820;9.248;2023-03-15T12:17:35;1.50;;;0.80;;
15246;SDS011;7726;48.820;9.248;2023-03-15T12:20:05;1.53;;;0.63;;
15246;SDS011;7726;48.820;9.248;2023-03-15T12:22:33;2.17;;;0.53;;
15246;SDS011;7726;48.820;9.248;2023-03-15T12:25:03;1.80;;;1.00;;
15246;SDS011;7726;48.820;9.248;2023-03-15T12:27:33;1.93;;;0.90;;
15246;SDS011;7726;48.820;9.248;2023-03-15T12:30:04;2.33;;;0.90;;
15246;SDS011;7726;48.820;9.248;2023-03-15T12:32:35;1.93;;;0.90;;
15246;SDS011;7726;48.820;9.248;2023-03-15T12:35:10;1.53;;;0.87;;
15246;SDS011;7726;48.820;9.248;2023-03-15T12:37:41;1.33;;;0.90;;
15246;SDS011;7726;48.820;9.248;2023-03-15T12:45:41;2.60;;;0.90;;
15246;SDS011;7726;48.820;9.248;2023-03-15T12:48:22;1.27;;;0.90;;
15246;SDS011;7726;48.820;9.248;2023-03-15T12:50:51;3.63;;;0.90;;
15246;SDS011;7726;48.820;9.248;2023-03-15T12:53:18;3.17;;;1.00;;
15246;SDS011;7726;48.820;9.248;2023-03-15T12:55:47;3.77;;;1.30;;
15246;SDS011;7726;48.820;9.248;2023-03-15T12:58:15;2.27;;;1.20;;
15246;SDS011;7726;48.820;9.248;2023-03-15T13:00:44;1.33;;;1.23;;
15246;SDS011;7726;48.820;9.248;2023-03-15T13:03:13;2.63;;;1.23;;
15246;SDS011;7726;48.820;9.248;2023-03-15T13:05:45;3.10;;;1.27;;
15246;SDS011;7726;48.820;9.248;2023-03-15T13:08:17;2.20;;;1.50;;
15246;SDS011;7726;48.820;9.248;2023-03-15T13:10:57;3.30;;;1.90;;
15246;SDS011;7726;48.820;9.248;2023-03-15T13:13:29;2.43;;;1.23;;
15246;SDS011;7726;48.820;9.248;2023-03-15T13:16:03;2.60;;;1.20;;
15246;SDS011;7726;48.820;9.248;2023-03-15T13:18:33;2.73;;;1.07;;
15246;SDS011;7726;48.820;9.248;2023-03-15T13:21:04;2.77;;;1.40;;
15246;SDS011;7726;48.820;9.248;2023-03-15T13:23:35;2.20;;;1.30;;
15246;SDS011;7726;48.820;9.248;2023-03-15T13:26:10;1.50;;;1.10;;
15246;SDS011;7726;48.820;9.248;2023-03-15T13:28:41;1.30;;;1.20;;
15246;SDS011;7726;48.820;9.248;2023-03-15T13:31:16;4.23;;;1.27;;
15246;SDS011;7726;48.820;9.248;2023-03-15T13:33:45;1.93;;;1.30;;
15246;SDS011;7726;48.820;9.248;2023-03-15T13:36:13;4.47;;;1.60;;
15246;SDS011;7726;48.820;9.248;2023-03-15T13:38:41;2.37;;;1.33;;
15246;SDS011;7726;48.820;9.248;2023-03-15T13:41:15;2.93;;;1.40;;
15246;SDS011;7726;48.820;9.248;2023-03-15T13:43:42;4.17;;;1.33;;
15246;SDS011;7726;48.820;9.248;2023-03-15T13:46:09;2.10;;;1.10;;
15246;SDS011;7726;48.820;9.248;2023-03-15T13:48:38;4.97;;;1.17;;
15246;SDS011;7726;48.820;9.248;2023-03-15T13:51:06;1.87;;;1.27;;
15246;SDS011;7726;48.820;9.248;2023-03-15T13:53:35;2.37;;;1.20;;
15246;SDS011;7726;48.820;9.248;2023-03-15T13:56:05;3.90;;;1.40;;
15246;SDS011;7726;48.820;9.248;2023-03-15T13:58:33;4.63;;;1.33;;
15246;SDS011;7726;48.820;9.248;2023-03-15T14:01:03;3.20;;;1.20;;
15246;SDS011;7726;48.820;9.248;2023-03-15T14:03:32;2.10;;;1.40;;
15246;SDS011;7726;48.820;9.248;2023-03-15T14:06:00;1.60;;;1.20;;
15246;SDS011;7726;48.820;9.248;2023-03-15T14:08:28;2.07;;;1.10;;
15246;SDS011;7726;48.820;9.248;2023-03-15T14:10:57;2.00;;;1.30;;
15246;SDS011;7726;48.820;9.248;2023-03-15T14:13:26;1.40;;;1.30;;
15246;SDS011;7726;48.820;9.248;2023-03-15T14:15:57;3.77;;;1.20;;
15246;SDS011;7726;48.820;9.248;2023-03-15T14:18:28;1.50;;;1.40;;
15246;SDS011;7726;48.820;9.248;2023-03-15T14:20:57;1.17;;;1.10;;
15246;SDS011;7726;48.820;9.248;2023-03-15T14:23:27;1.07;;;1.00;;
15246;SDS011;7726;48.820;9.248;2023-03-15T14:25:55;1.17;;;0.93;;
15246;SDS011;7726;48.820;9.248;2023-03-15T14:28:26;1.43;;;0.83;;
15246;SDS011;7726;48.820;9.248;2023-03-15T14:30:54;2.23;;;1.07;;
15246;SDS011;7726;48.820;9.248;2023-03-15T14:33:23;1.63;;;0.93;;
15246;SDS011;7726;48.820;9.248;2023-03-15T14:35:52;1.20;;;1.10;;
15246;SDS011;7726;48.820;9.248;2023-03-15T14:38:21;0.93;;;0.80;;
15246;SDS011;7726;48.820;9.248;2023-03-15T14:40:50;1.30;;;1.20;;
15246;SDS011;7726;48.820;9.248;2023-03-15T14:43:17;2.03;;;1.30;;
15246;SDS011;7726;48.820;9.248;2023-03-15T14:45:45;2.13;;;1.10;;
15246;SDS011;7726;48.820;9.248;2023-03-15T14:48:13;1.63;;;1.13;;
15246;SDS011;7726;48.820;9.248;2023-03-15T14:50:41;2.37;;;1.03;;
15246;SDS011;7726;48.820;9.248;2023-03-15T14:53:11;2.87;;;1.20;;
15246;SDS011;7726;48.820;9.248;2023-03-15T14:55:40;2.43;;;1.23;;
15246;SDS011;7726;48.820;9.248;2023-03-15T14:58:10;0.60;;;0.60;;
15246;SDS011;7726;48.820;9.248;2023-03-15T15:00:37;1.20;;;0.90;;
15246;SDS011;7726;48.820;9.248;2023-03-15T15:03:05;1.53;;;1.43;;
15246;SDS011;7726;48.820;9.248;2023-03-15T15:05:34;0.83;;;0.83;;
15246;SDS011;7726;48.820;9.248;2023-03-15T15:08:02;1.50;;;1.40;;
15246;SDS011;7726;48.820;9.248;2023-03-15T15:10:30;1.30;;;1.20;;
15246;SDS011;7726;48.820;9.248;2023-03-15T15:12:58;1.07;;;1.07;;
15246;SDS011;7726;48.820;9.248;2023-03-15T15:15:27;1.03;;;1.03;;